sensor_id;sensor_type;location;lat;lon;timestamp;P1;durP1;ratioP1;P2;durP2;ratioP2
7527;SDS011;3805;49.006;8.514;2023-04-25T00:02:46;7.07;;;6.47;;
7527;SDS011;3805;49.006;8.514;2023-04-25T00:05:35;5.90;;;5.40;;
7527;SDS011;3805;49.006;8.514;2023-04-25T00:08:24;6.63;;;6.10;;
7527;SDS011;3805;49.006;8.514;2023-04-25T00:11:13;7.07;;;6.47;;
7527;SDS011;3805;49.006;8.514;2023-04-25T00:14:03;7.57;;;6.20;;
7527;SDS011;3805;49.006;8.514;2023-04-25T00:16:53;6.73;;;6.13;;
7527;SDS011;3805;49.006;8.514;2023-04-25T00:19:42;7.23;;;6.10;;
7527;SDS011;3805;49.006;8.514;2023-04-25T00:22:32;8.80;;;6.50;;
7527;SDS011;3805;49.006;8.514;2023-04-25T00:25:21;8.27;;;6.30;;
7527;SDS011;3805;49.006;8.514;2023-04-25T00:28:10;6.10;;;5.60;;
7527;SDS011;3805;49.006;8.514;2023-04-25T00:31:00;5.90;;;5.40;;
7527;SDS011;3805;49.006;8.514;2023-04-25T00:33:49;6.23;;;5.47;;
7527;SDS011;3805;49.006;8.514;2023-04-25T00:36:38;6.80;;;6.17;;
7527;SDS011;3805;49.006;8.514;2023-04-25T00:39:26;8.00;;;7.13;;
7527;SDS011;3805;49.006;8.514;2023-04-25T00:42:15;7.50;;;6.80;;
7527;SDS011;3805;49.006;8.514;2023-04-25T00:45:04;6.90;;;6.30;;
7527;SDS011;3805;49.006;8.514;2023-04-25T00:47:56;6.70;;;6.10;;
7527;SDS011;3805;49.006;8.514;2023-04-25T00:50:45;7.43;;;6.70;;
7527;SDS011;3805;49.006;8.514;2023-04-25T00:53:40;7.10;;;6.50;;
7527;SDS011;3805;49.006;8.514;2023-04-25T00:56:28;6.20;;;5.70;;
7527;SDS011;3805;49.006;8.514;2023-04-25T00:59:17;5.17;;;4.77;;
7527;SDS011;3805;49.006;8.514;2023-04-25T01:02:06;6.30;;;5.70;;
7527;SDS011;3805;49.006;8.514;2023-04-25T01:04:57;5.57;;;5.23;;
7527;SDS011;3805;49.006;8.514;2023-04-25T01:07:46;5.53;;;5.03;;
7527;SDS011;3805;49.006;8.514;2023-04-25T01:10:35;5.07;;;4.60;;
7527;SDS011;3805;49.006;8.514;2023-04-25T01:13:24;4.40;;;4.00;;
7527;SDS011;3805;49.006;8.514;2023-04-25T01:16:12;6.03;;;4.60;;
7527;SDS011;3805;49.006;8.514;2023-04-25T01:19:01;4.97;;;4.60;;
7527;SDS011;3805;49.006;8.514;2023-04-25T01:21:51;5.00;;;4.60;;
7527;SDS011;3805;49.006;8.514;2023-04-25T01:24:39;4.90;;;4.50;;
7527;SDS011;3805;49.006;8.514;2023-04-25T01:27:28;4.10;;;3.80;;
7527;SDS011;3805;49.006;8.514;2023-04-25T01:30:17;5.43;;;5.03;;
7527;SDS011;3805;49.006;8.514;2023-04-25T01:33:06;4.33;;;4.03;;
7527;SDS011;3805;49.006;8.514;2023-04-25T01:35:56;6.17;;;5.57;;
7527;SDS011;3805;49.006;8.514;2023-04-25T01:38:46;5.77;;;5.27;;
7527;SDS011;3805;49.006;8.514;2023-04-25T01:41:35;5.40;;;4.90;;
7527;SDS011;3805;49.006;8.514;2023-04-25T01:44:23;5.10;;;4.67;;
7527;SDS011;3805;49.006;8.514;2023-04-25T01:47:12;4.50;;;4.10;;
7527;SDS011;3805;49.006;8.514;2023-04-25T01:50:00;5.63;;;5.17;;
7527;SDS011;3805;49.006;8.514;2023-04-25T01:52:49;5.17;;;4.77;;
7527;SDS011;3805;49.006;8.514;2023-04-25T01:55:39;5.87;;;5.30;;
7527;SDS011;3805;49.006;8.514;2023-04-25T01:58:27;5.60;;;4.80;;
7527;SDS011;3805;49.006;8.514;2023-04-25T02:01:16;5.43;;;4.93;;
7527;SDS011;3805;49.006;8.514;2023-04-25T02:04:04;5.23;;;4.87;;
7527;SDS011;3805;49.006;8.514;2023-04-25T02:06:53;5.53;;;5.03;;
7527;SDS011;3805;49.006;8.514;2023-04-25T02:09:42;5.00;;;4.70;;
7527;SDS011;3805;49.006;8.514;2023-04-25T02:12:31;6.40;;;5.07;;
7527;SDS011;3805;49.006;8.514;2023-04-25T02:15:20;5.27;;;4.90;;
7527;SDS011;3805;49.006;8.514;2023-04-25T02:18:08;5.80;;;5.30;;
7527;SDS011;3805;49.006;8.514;2023-04-25T02:20:58;5.07;;;4.67;;
7527;SDS011;3805;49.006;8.514;2023-04-25T02:23:48;5.67;;;5.10;;
7527;SDS011;3805;49.006;8.514;2023-04-25T02:26:39;5.00;;;4.50;;
7527;SDS011;3805;49.006;8.514;2023-04-25T02:29:29;7.03;;;5.00;;
7527;SDS011;3805;49.006;8.514;2023-04-25T02:32:17;5.13;;;4.67;;
7527;SDS011;3805;49.006;8.514;2023-04-25T02:35:06;7.07;;;6.37;;
7527;SDS011;3805;49.006;8.514;2023-04-25T02:37:55;5.50;;;5.10;;
7527;SDS011;3805;49.006;8.514;2023-04-25T02:40:44;5.43;;;5.03;;
7527;SDS011;3805;49.006;8.514;2023-04-25T02:43:32;6.53;;;5.93;;
7527;SDS011;3805;49.006;8.514;2023-04-25T02:46:22;6.27;;;5.77;;
7527;SDS011;3805;49.006;8.514;2023-04-25T02:49:25;6.50;;;5.83;;
7527;SDS011;3805;49.006;8.514;2023-04-25T02:52:13;6.23;;;5.73;;
7527;SDS011;3805;49.006;8.514;2023-04-25T02:55:02;5.63;;;5.13;;
7527;SDS011;3805;49.006;8.514;2023-04-25T02:57:50;7.03;;;6.33;;
7527;SDS011;3805;49.006;8.514;2023-04-25T03:00:39;5.77;;;5.27;;
7527;SDS011;3805;49.006;8.514;2023-04-25T03:03:29;6.10;;;5.60;;
7527;SDS011;3805;49.006;8.514;2023-04-25T03:06:17;6.00;;;5.50;;
7527;SDS011;3805;49.006;8.514;2023-04-25T03:09:06;7.97;;;5.83;;
7527;SDS011;3805;49.006;8.514;2023-04-25T03:11:54;6.00;;;5.60;;
7527;SDS011;3805;49.006;8.514;2023-04-25T03:14:43;6.33;;;5.73;;
7527;SDS011;3805;49.006;8.514;2023-04-25T03:17:31;6.00;;;5.50;;
7527;SDS011;3805;49.006;8.514;2023-04-25T03:20:21;6.30;;;5.70;;
7527;SDS011;3805;49.006;8.514;2023-04-25T03:23:10;6.63;;;6.00;;
7527;SDS011;3805;49.006;8.514;2023-04-25T03:25:58;6.43;;;5.93;;
7527;SDS011;3805;49.006;8.514;2023-04-25T03:28:47;6.17;;;5.10;;
7527;SDS011;3805;49.006;8.514;2023-04-25T03:31:35;5.30;;;4.90;;
7527;SDS011;3805;49.006;8.514;2023-04-25T03:34:24;6.00;;;5.40;;
7527;SDS011;3805;49.006;8.514;2023-04-25T03:37:14;5.90;;;5.40;;
7527;SDS011;3805;49.006;8.514;2023-04-25T03:40:03;7.00;;;5.93;;
7527;SDS011;3805;49.006;8.514;2023-04-25T03:42:52;6.77;;;6.27;;
7527;SDS011;3805;49.006;8.514;2023-04-25T03:45:40;6.43;;;5.93;;
7527;SDS011;3805;49.006;8.514;2023-04-25T03:48:29;6.53;;;6.00;;
7527;SDS011;3805;49.006;8.514;2023-04-25T03:51:18;7.30;;;6.60;;
7527;SDS011;3805;49.006;8.514;2023-04-25T03:54:07;6.70;;;6.20;;
7527;SDS011;3805;49.006;8.514;2023-04-25T03:56:56;6.40;;;5.90;;
7527;SDS011;3805;49.006;8.514;2023-04-25T03:59:44;6.20;;;5.70;;
7527;SDS011;3805;49.006;8.514;2023-04-25T04:02:33;7.30;;;6.70;;
7527;SDS011;3805;49.006;8.514;2023-04-25T04:05:23;6.43;;;5.93;;
7527;SDS011;3805;49.006;8.514;2023-04-25T04:08:12;7.07;;;6.47;;
7527;SDS011;3805;49.006;8.514;2023-04-25T04:11:02;6.87;;;6.30;;
7527;SDS011;3805;49.006;8.514;2023-04-25T04:13:50;6.07;;;5.57;;
7527;SDS011;3805;49.006;8.514;2023-04-25T04:16:39;6.73;;;6.23;;
7527;SDS011;3805;49.006;8.514;2023-04-25T04:19:28;6.30;;;5.80;;
7527;SDS011;3805;49.006;8.514;2023-04-25T04:22:16;6.60;;;6.10;;
7527;SDS011;3805;49.006;8.514;2023-04-25T04:25:05;6.10;;;5.50;;
7527;SDS011;3805;49.006;8.514;2023-04-25T04:27:57;6.00;;;5.50;;
7527;SDS011;3805;49.006;8.514;2023-04-25T04:30:47;6.17;;;5.67;;
7527;SDS011;3805;49.006;8.514;2023-04-25T04:33:38;5.73;;;5.20;;
7527;SDS011;3805;49.006;8.514;2023-04-25T04:36:26;6.90;;;6.20;;
7527;SDS011;3805;49.006;8.514;2023-04-25T04:39:15;6.60;;;6.03;;
7527;SDS011;3805;49.006;8.514;2023-04-25T04:42:03;6.17;;;5.57;;
7527;SDS011;3805;49.006;8.514;2023-04-25T04:44:55;6.13;;;5.50;;
7527;SDS011;3805;49.006;8.514;2023-04-25T04:47:43;6.30;;;5.70;;
7527;SDS011;3805;49.006;8.514;2023-04-25T04:50:32;6.33;;;5.83;;
7527;SDS011;3805;49.006;8.514;2023-04-25T04:53:22;7.23;;;6.67;;
7527;SDS011;3805;49.006;8.514;2023-04-25T04:56:11;7.50;;;5.90;;
7527;SDS011;3805;49.006;8.514;2023-04-25T04:58:59;7.10;;;6.50;;
7527;SDS011;3805;49.006;8.514;2023-04-25T05:01:50;8.03;;;7.33;;
7527;SDS011;3805;49.006;8.514;2023-04-25T05:04:40;6.80;;;6.20;;
7527;SDS011;3805;49.006;8.514;2023-04-25T05:07:29;7.60;;;6.90;;
7527;SDS011;3805;49.006;8.514;2023-04-25T05:10:18;6.57;;;5.97;;
7527;SDS011;3805;49.006;8.514;2023-04-25T05:13:07;10.00;;;6.63;;
7527;SDS011;3805;49.006;8.514;2023-04-25T05:15:55;6.77;;;6.27;;
7527;SDS011;3805;49.006;8.514;2023-04-25T05:18:45;6.50;;;5.90;;
7527;SDS011;3805;49.006;8.514;2023-04-25T05:21:34;6.90;;;6.30;;
7527;SDS011;3805;49.006;8.514;2023-04-25T05:24:22;6.30;;;5.90;;
7527;SDS011;3805;49.006;8.514;2023-04-25T05:27:11;6.03;;;5.43;;
7527;SDS011;3805;49.006;8.514;2023-04-25T05:29:59;6.30;;;5.80;;
7527;SDS011;3805;49.006;8.514;2023-04-25T05:32:48;7.30;;;6.70;;
7527;SDS011;3805;49.006;8.514;2023-04-25T05:35:38;7.40;;;6.80;;
7527;SDS011;3805;49.006;8.514;2023-04-25T05:38:27;6.77;;;6.23;;
7527;SDS011;3805;49.006;8.514;2023-04-25T05:41:19;7.00;;;6.40;;
7527;SDS011;3805;49.006;8.514;2023-04-25T05:44:08;6.57;;;6.00;;
7527;SDS011;3805;49.006;8.514;2023-04-25T05:46:56;7.20;;;6.57;;
7527;SDS011;3805;49.006;8.514;2023-04-25T05:49:45;6.80;;;6.20;;
7527;SDS011;3805;49.006;8.514;2023-04-25T05:52:35;6.07;;;5.57;;
7527;SDS011;3805;49.006;8.514;2023-04-25T05:55:23;6.97;;;6.37;;
7527;SDS011;3805;49.006;8.514;2023-04-25T05:58:12;6.63;;;6.03;;
7527;SDS011;3805;49.006;8.514;2023-04-25T06:01:01;6.80;;;6.00;;
7527;SDS011;3805;49.006;8.514;2023-04-25T06:03:49;6.80;;;6.10;;
7527;SDS011;3805;49.006;8.514;2023-04-25T06:06:40;6.67;;;6.17;;
7527;SDS011;3805;49.006;8.514;2023-04-25T06:09:30;6.70;;;6.20;;
7527;SDS011;3805;49.006;8.514;2023-04-25T06:12:18;5.73;;;5.33;;
7527;SDS011;3805;49.006;8.514;2023-04-25T06:15:07;6.47;;;5.97;;
7527;SDS011;3805;49.006;8.514;2023-04-25T06:18:14;7.00;;;6.10;;
7527;SDS011;3805;49.006;8.514;2023-04-25T06:21:02;7.50;;;6.37;;
7527;SDS011;3805;49.006;8.514;2023-04-25T06:23:51;9.77;;;6.50;;
7527;SDS011;3805;49.006;8.514;2023-04-25T06:26:41;6.83;;;6.10;;
7527;SDS011;3805;49.006;8.514;2023-04-25T06:29:30;7.63;;;6.83;;
7527;SDS011;3805;49.006;8.514;2023-04-25T06:32:18;7.50;;;6.80;;
7527;SDS011;3805;49.006;8.514;2023-04-25T06:35:07;6.70;;;6.10;;
7527;SDS011;3805;49.006;8.514;2023-04-25T06:37:57;7.40;;;6.80;;
7527;SDS011;3805;49.006;8.514;2023-04-25T06:40:45;6.83;;;6.10;;
7527;SDS011;3805;49.006;8.514;2023-04-25T06:43:35;6.70;;;6.00;;
7527;SDS011;3805;49.006;8.514;2023-04-25T06:46:23;6.53;;;6.00;;
7527;SDS011;3805;49.006;8.514;2023-04-25T06:49:12;7.97;;;7.20;;
7527;SDS011;3805;49.006;8.514;2023-04-25T06:52:01;6.60;;;6.10;;
7527;SDS011;3805;49.006;8.514;2023-04-25T06:54:49;6.90;;;6.20;;
7527;SDS011;3805;49.006;8.514;2023-04-25T06:57:38;7.27;;;6.60;;
7527;SDS011;3805;49.006;8.514;2023-04-25T07:00:28;8.80;;;8.00;;
7527;SDS011;3805;49.006;8.514;2023-04-25T07:03:17;7.73;;;7.13;;
7527;SDS011;3805;49.006;8.514;2023-04-25T07:06:06;7.20;;;6.50;;
7527;SDS011;3805;49.006;8.514;2023-04-25T07:08:55;10.07;;;7.83;;
7527;SDS011;3805;49.006;8.514;2023-04-25T07:11:43;7.13;;;6.47;;
7527;SDS011;3805;49.006;8.514;2023-04-25T07:14:32;7.80;;;7.10;;
7527;SDS011;3805;49.006;8.514;2023-04-25T07:17:21;7.80;;;7.07;;
7527;SDS011;3805;49.006;8.514;2023-04-25T07:20:10;7.90;;;7.03;;
7527;SDS011;3805;49.006;8.514;2023-04-25T07:22:59;7.60;;;7.00;;
7527;SDS011;3805;49.006;8.514;2023-04-25T07:25:47;7.13;;;6.43;;
7527;SDS011;3805;49.006;8.514;2023-04-25T07:28:36;8.00;;;6.73;;
7527;SDS011;3805;49.006;8.514;2023-04-25T07:31:24;7.73;;;7.13;;
7527;SDS011;3805;49.006;8.514;2023-04-25T07:34:14;7.43;;;6.83;;
7527;SDS011;3805;49.006;8.514;2023-04-25T07:37:03;10.10;;;7.40;;
7527;SDS011;3805;49.006;8.514;2023-04-25T07:39:52;7.40;;;6.70;;
7527;SDS011;3805;49.006;8.514;2023-04-25T07:42:40;6.70;;;6.20;;
7527;SDS011;3805;49.006;8.514;2023-04-25T07:45:29;7.93;;;7.30;;
7527;SDS011;3805;49.006;8.514;2023-04-25T07:48:18;7.60;;;6.90;;
7527;SDS011;3805;49.006;8.514;2023-04-25T07:51:08;8.03;;;7.33;;
7527;SDS011;3805;49.006;8.514;2023-04-25T07:53:56;8.10;;;7.40;;
7527;SDS011;3805;49.006;8.514;2023-04-25T07:56:45;9.27;;;8.47;;
7527;SDS011;3805;49.006;8.514;2023-04-25T07:59:39;8.67;;;7.80;;
7527;SDS011;3805;49.006;8.514;2023-04-25T08:02:27;8.83;;;8.03;;
7527;SDS011;3805;49.006;8.514;2023-04-25T08:05:16;8.33;;;7.53;;
7527;SDS011;3805;49.006;8.514;2023-04-25T08:08:10;9.80;;;8.90;;
7527;SDS011;3805;49.006;8.514;2023-04-25T08:10:58;8.97;;;8.03;;
7527;SDS011;3805;49.006;8.514;2023-04-25T08:13:47;9.50;;;8.70;;
7527;SDS011;3805;49.006;8.514;2023-04-25T08:16:35;10.47;;;9.47;;
7527;SDS011;3805;49.006;8.514;2023-04-25T08:19:24;9.97;;;8.97;;
7527;SDS011;3805;49.006;8.514;2023-04-25T08:22:12;9.70;;;8.80;;
7527;SDS011;3805;49.006;8.514;2023-04-25T08:25:03;10.87;;;9.87;;
7527;SDS011;3805;49.006;8.514;2023-04-25T08:27:52;11.50;;;8.90;;
7527;SDS011;3805;49.006;8.514;2023-04-25T08:30:41;12.83;;;10.33;;
7527;SDS011;3805;49.006;8.514;2023-04-25T08:33:29;10.60;;;9.60;;
7527;SDS011;3805;49.006;8.514;2023-04-25T08:36:19;12.03;;;10.93;;
7527;SDS011;3805;49.006;8.514;2023-04-25T08:39:24;12.10;;;10.87;;
7527;SDS011;3805;49.006;8.514;2023-04-25T08:42:14;11.43;;;10.43;;
7527;SDS011;3805;49.006;8.514;2023-04-25T08:45:03;11.90;;;10.67;;
7527;SDS011;3805;49.006;8.514;2023-04-25T08:47:53;12.10;;;11.10;;
7527;SDS011;3805;49.006;8.514;2023-04-25T08:50:45;14.00;;;12.60;;
7527;SDS011;3805;49.006;8.514;2023-04-25T08:53:38;13.70;;;12.10;;
7527;SDS011;3805;49.006;8.514;2023-04-25T08:56:29;13.87;;;12.57;;
7527;SDS011;3805;49.006;8.514;2023-04-25T08:59:23;13.40;;;12.20;;
7527;SDS011;3805;49.006;8.514;2023-04-25T09:02:12;14.50;;;13.00;;
7527;SDS011;3805;49.006;8.514;2023-04-25T09:05:04;13.57;;;12.23;;
7527;SDS011;3805;49.006;8.514;2023-04-25T09:07:53;15.10;;;12.47;;
7527;SDS011;3805;49.006;8.514;2023-04-25T09:10:43;14.57;;;13.17;;
7527;SDS011;3805;49.006;8.514;2023-04-25T09:13:31;15.93;;;14.23;;
7527;SDS011;3805;49.006;8.514;2023-04-25T09:16:21;15.50;;;13.97;;
7527;SDS011;3805;49.006;8.514;2023-04-25T09:19:14;14.70;;;12.70;;
7527;SDS011;3805;49.006;8.514;2023-04-25T09:22:24;14.90;;;13.30;;
7527;SDS011;3805;49.006;8.514;2023-04-25T09:25:13;14.80;;;13.20;;
7527;SDS011;3805;49.006;8.514;2023-04-25T09:28:03;9.60;;;8.80;;
7527;SDS011;3805;49.006;8.514;2023-04-25T09:30:54;8.60;;;7.90;;
7527;SDS011;3805;49.006;8.514;2023-04-25T09:33:44;7.40;;;6.80;;
7527;SDS011;3805;49.006;8.514;2023-04-25T09:36:33;6.30;;;5.70;;
7527;SDS011;3805;49.006;8.514;2023-04-25T09:39:22;7.10;;;6.40;;
7527;SDS011;3805;49.006;8.514;2023-04-25T09:42:12;8.33;;;7.53;;
7527;SDS011;3805;49.006;8.514;2023-04-25T09:45:02;9.10;;;8.00;;
7527;SDS011;3805;49.006;8.514;2023-04-25T09:47:55;9.50;;;8.67;;
7527;SDS011;3805;49.006;8.514;2023-04-25T09:50:46;11.27;;;10.17;;
7527;SDS011;3805;49.006;8.514;2023-04-25T09:53:52;12.77;;;9.93;;
7527;SDS011;3805;49.006;8.514;2023-04-25T09:56:40;11.03;;;9.40;;
7527;SDS011;3805;49.006;8.514;2023-04-25T09:59:29;12.67;;;11.37;;
7527;SDS011;3805;49.006;8.514;2023-04-25T10:02:19;12.73;;;11.00;;
7527;SDS011;3805;49.006;8.514;2023-04-25T10:05:08;12.53;;;11.23;;
7527;SDS011;3805;49.006;8.514;2023-04-25T10:08:01;11.33;;;10.23;;
7527;SDS011;3805;49.006;8.514;2023-04-25T10:10:51;11.83;;;10.67;;
7527;SDS011;3805;49.006;8.514;2023-04-25T10:13:39;12.70;;;11.07;;
7527;SDS011;3805;49.006;8.514;2023-04-25T10:16:28;11.67;;;10.47;;
7527;SDS011;3805;49.006;8.514;2023-04-25T10:19:18;10.90;;;9.90;;
7527;SDS011;3805;49.006;8.514;2023-04-25T10:22:07;10.80;;;9.77;;
7527;SDS011;3805;49.006;8.514;2023-04-25T10:25:00;12.33;;;11.00;;
7527;SDS011;3805;49.006;8.514;2023-04-25T10:27:51;12.27;;;10.97;;
7527;SDS011;3805;49.006;8.514;2023-04-25T10:30:48;13.67;;;11.33;;
7527;SDS011;3805;49.006;8.514;2023-04-25T10:33:45;15.13;;;11.77;;
7527;SDS011;3805;49.006;8.514;2023-04-25T10:36:33;12.03;;;10.83;;
7527;SDS011;3805;49.006;8.514;2023-04-25T10:39:24;12.93;;;10.33;;
7527;SDS011;3805;49.006;8.514;2023-04-25T10:42:16;11.90;;;10.67;;
7527;SDS011;3805;49.006;8.514;2023-04-25T10:45:06;13.97;;;11.47;;
7527;SDS011;3805;49.006;8.514;2023-04-25T10:47:55;14.27;;;12.87;;
7527;SDS011;3805;49.006;8.514;2023-04-25T10:50:43;17.33;;;12.50;;
7527;SDS011;3805;49.006;8.514;2023-04-25T10:53:33;16.80;;;11.77;;
7527;SDS011;3805;49.006;8.514;2023-04-25T10:56:22;12.37;;;10.53;;
7527;SDS011;3805;49.006;8.514;2023-04-25T10:59:13;11.80;;;10.47;;
7527;SDS011;3805;49.006;8.514;2023-04-25T11:02:09;12.00;;;10.80;;
7527;SDS011;3805;49.006;8.514;2023-04-25T11:04:59;11.67;;;10.47;;
7527;SDS011;3805;49.006;8.514;2023-04-25T11:07:49;12.53;;;10.83;;
7527;SDS011;3805;49.006;8.514;2023-04-25T11:10:50;12.83;;;11.63;;
7527;SDS011;3805;49.006;8.514;2023-04-25T11:13:38;13.60;;;11.20;;
7527;SDS011;3805;49.006;8.514;2023-04-25T11:16:28;17.23;;;12.13;;
7527;SDS011;3805;49.006;8.514;2023-04-25T11:19:19;16.17;;;12.50;;
7527;SDS011;3805;49.006;8.514;2023-04-25T11:22:07;15.70;;;12.37;;
7527;SDS011;3805;49.006;8.514;2023-04-25T11:24:56;12.43;;;10.73;;
7527;SDS011;3805;49.006;8.514;2023-04-25T11:27:50;12.70;;;11.50;;
7527;SDS011;3805;49.006;8.514;2023-04-25T11:30:39;14.40;;;12.50;;
7527;SDS011;3805;49.006;8.514;2023-04-25T11:33:30;14.40;;;11.70;;
7527;SDS011;3805;49.006;8.514;2023-04-25T11:36:18;18.80;;;12.47;;
7527;SDS011;3805;49.006;8.514;2023-04-25T11:39:07;14.50;;;13.00;;
7527;SDS011;3805;49.006;8.514;2023-04-25T11:41:56;19.77;;;15.10;;
7527;SDS011;3805;49.006;8.514;2023-04-25T11:44:47;18.20;;;16.00;;
7527;SDS011;3805;49.006;8.514;2023-04-25T11:47:36;17.17;;;15.07;;
7527;SDS011;3805;49.006;8.514;2023-04-25T11:50:26;21.70;;;15.33;;
7527;SDS011;3805;49.006;8.514;2023-04-25T11:53:17;18.83;;;15.03;;
7527;SDS011;3805;49.006;8.514;2023-04-25T11:56:08;18.40;;;14.60;;
7527;SDS011;3805;49.006;8.514;2023-04-25T11:58:57;18.93;;;13.67;;
7527;SDS011;3805;49.006;8.514;2023-04-25T12:01:48;17.53;;;13.63;;
7527;SDS011;3805;49.006;8.514;2023-04-25T12:04:37;15.03;;;13.20;;
7527;SDS011;3805;49.006;8.514;2023-04-25T12:07:29;15.10;;;12.80;;
7527;SDS011;3805;49.006;8.514;2023-04-25T12:10:18;18.03;;;14.20;;
7527;SDS011;3805;49.006;8.514;2023-04-25T12:13:20;16.10;;;12.90;;
7527;SDS011;3805;49.006;8.514;2023-04-25T12:16:08;15.97;;;12.97;;
7527;SDS011;3805;49.006;8.514;2023-04-25T12:18:57;17.77;;;14.73;;
7527;SDS011;3805;49.006;8.514;2023-04-25T12:21:47;18.47;;;13.03;;
7527;SDS011;3805;49.006;8.514;2023-04-25T12:24:46;17.97;;;13.13;;
7527;SDS011;3805;49.006;8.514;2023-04-25T12:27:35;13.93;;;12.40;;
7527;SDS011;3805;49.006;8.514;2023-04-25T12:30:24;14.83;;;12.37;;
7527;SDS011;3805;49.006;8.514;2023-04-25T12:33:12;12.10;;;10.73;;
7527;SDS011;3805;49.006;8.514;2023-04-25T12:36:01;15.30;;;10.93;;
7527;SDS011;3805;49.006;8.514;2023-04-25T12:38:55;14.67;;;12.47;;
7527;SDS011;3805;49.006;8.514;2023-04-25T12:41:45;12.67;;;11.20;;
7527;SDS011;3805;49.006;8.514;2023-04-25T12:44:34;17.53;;;12.27;;
7527;SDS011;3805;49.006;8.514;2023-04-25T12:47:23;14.13;;;11.23;;
7527;SDS011;3805;49.006;8.514;2023-04-25T12:50:12;13.53;;;11.17;;
7527;SDS011;3805;49.006;8.514;2023-04-25T12:53:00;13.13;;;11.87;;
7527;SDS011;3805;49.006;8.514;2023-04-25T12:55:48;14.20;;;10.80;;
7527;SDS011;3805;49.006;8.514;2023-04-25T12:58:38;16.40;;;14.13;;
7527;SDS011;3805;49.006;8.514;2023-04-25T13:01:27;12.03;;;10.83;;
7527;SDS011;3805;49.006;8.514;2023-04-25T13:04:16;14.13;;;11.90;;
7527;SDS011;3805;49.006;8.514;2023-04-25T13:07:04;10.97;;;9.87;;
7527;SDS011;3805;49.006;8.514;2023-04-25T13:09:53;9.60;;;8.63;;
7527;SDS011;3805;49.006;8.514;2023-04-25T13:12:42;8.23;;;7.50;;
7527;SDS011;3805;49.006;8.514;2023-04-25T13:15:32;8.70;;;7.50;;
7527;SDS011;3805;49.006;8.514;2023-04-25T13:18:21;8.03;;;7.23;;
7527;SDS011;3805;49.006;8.514;2023-04-25T13:21:13;8.83;;;8.23;;
7527;SDS011;3805;49.006;8.514;2023-04-25T13:24:01;9.27;;;8.07;;
7527;SDS011;3805;49.006;8.514;2023-04-25T13:26:50;9.10;;;7.67;;
7527;SDS011;3805;49.006;8.514;2023-04-25T13:29:39;7.43;;;6.70;;
7527;SDS011;3805;49.006;8.514;2023-04-25T13:32:29;7.83;;;7.03;;
7527;SDS011;3805;49.006;8.514;2023-04-25T13:35:18;7.53;;;6.77;;
7527;SDS011;3805;49.006;8.514;2023-04-25T13:38:06;8.50;;;7.80;;
7527;SDS011;3805;49.006;8.514;2023-04-25T13:40:56;7.63;;;6.40;;
7527;SDS011;3805;49.006;8.514;2023-04-25T13:43:45;6.00;;;5.60;;
7527;SDS011;3805;49.006;8.514;2023-04-25T13:46:35;8.10;;;7.30;;
7527;SDS011;3805;49.006;8.514;2023-04-25T13:49:34;8.20;;;6.60;;
7527;SDS011;3805;49.006;8.514;2023-04-25T13:52:23;7.97;;;6.83;;
7527;SDS011;3805;49.006;8.514;2023-04-25T13:55:12;7.73;;;6.93;;
7527;SDS011;3805;49.006;8.514;2023-04-25T13:58:01;8.20;;;7.40;;
7527;SDS011;3805;49.006;8.514;2023-04-25T14:00:54;9.03;;;7.37;;
7527;SDS011;3805;49.006;8.514;2023-04-25T14:03:43;6.97;;;6.27;;
7527;SDS011;3805;49.006;8.514;2023-04-25T14:06:33;7.70;;;5.90;;
7527;SDS011;3805;49.006;8.514;2023-04-25T14:09:22;11.83;;;10.63;;
7527;SDS011;3805;49.006;8.514;2023-04-25T14:12:12;7.20;;;6.50;;
7527;SDS011;3805;49.006;8.514;2023-04-25T14:15:01;8.10;;;7.40;;
7527;SDS011;3805;49.006;8.514;2023-04-25T14:17:50;6.73;;;6.13;;
7527;SDS011;3805;49.006;8.514;2023-04-25T14:20:38;12.77;;;6.50;;
7527;SDS011;3805;49.006;8.514;2023-04-25T14:23:28;7.70;;;6.90;;
7527;SDS011;3805;49.006;8.514;2023-04-25T14:26:17;7.17;;;6.57;;
7527;SDS011;3805;49.006;8.514;2023-04-25T14:29:06;9.37;;;7.97;;
7527;SDS011;3805;49.006;8.514;2023-04-25T14:31:55;8.10;;;7.47;;
7527;SDS011;3805;49.006;8.514;2023-04-25T14:34:44;7.80;;;6.83;;
7527;SDS011;3805;49.006;8.514;2023-04-25T14:37:33;6.50;;;5.90;;
7527;SDS011;3805;49.006;8.514;2023-04-25T14:40:23;9.23;;;6.90;;
7527;SDS011;3805;49.006;8.514;2023-04-25T14:43:11;7.63;;;6.90;;
7527;SDS011;3805;49.006;8.514;2023-04-25T14:46:00;7.83;;;7.03;;
7527;SDS011;3805;49.006;8.514;2023-04-25T14:48:49;7.37;;;6.57;;
7527;SDS011;3805;49.006;8.514;2023-04-25T14:51:37;6.80;;;5.87;;
7527;SDS011;3805;49.006;8.514;2023-04-25T14:54:26;7.30;;;6.67;;
7527;SDS011;3805;49.006;8.514;2023-04-25T14:57:16;7.53;;;6.63;;
7527;SDS011;3805;49.006;8.514;2023-04-25T15:00:05;8.57;;;6.87;;
7527;SDS011;3805;49.006;8.514;2023-04-25T15:02:56;7.50;;;6.80;;
7527;SDS011;3805;49.006;8.514;2023-04-25T15:05:45;6.13;;;5.53;;
7527;SDS011;3805;49.006;8.514;2023-04-25T15:08:34;6.83;;;6.23;;
7527;SDS011;3805;49.006;8.514;2023-04-25T15:11:23;6.50;;;5.90;;
7527;SDS011;3805;49.006;8.514;2023-04-25T15:14:13;7.03;;;6.10;;
7527;SDS011;3805;49.006;8.514;2023-04-25T15:17:01;6.80;;;6.10;;
7527;SDS011;3805;49.006;8.514;2023-04-25T15:19:50;6.47;;;5.83;;
7527;SDS011;3805;49.006;8.514;2023-04-25T15:22:39;6.50;;;5.90;;
7527;SDS011;3805;49.006;8.514;2023-04-25T15:25:28;7.20;;;6.50;;
7527;SDS011;3805;49.006;8.514;2023-04-25T15:28:17;7.57;;;6.00;;
7527;SDS011;3805;49.006;8.514;2023-04-25T15:31:09;6.03;;;5.33;;
7527;SDS011;3805;49.006;8.514;2023-04-25T15:33:58;6.80;;;6.10;;
7527;SDS011;3805;49.006;8.514;2023-04-25T15:36:47;6.20;;;5.63;;
7527;SDS011;3805;49.006;8.514;2023-04-25T15:39:36;6.83;;;6.17;;
7527;SDS011;3805;49.006;8.514;2023-04-25T15:42:24;6.20;;;5.67;;
7527;SDS011;3805;49.006;8.514;2023-04-25T15:45:13;6.13;;;5.60;;
7527;SDS011;3805;49.006;8.514;2023-04-25T15:48:05;7.67;;;6.40;;
7527;SDS011;3805;49.006;8.514;2023-04-25T15:50:54;10.60;;;6.60;;
7527;SDS011;3805;49.006;8.514;2023-04-25T15:53:43;6.53;;;5.93;;
7527;SDS011;3805;49.006;8.514;2023-04-25T15:56:31;5.93;;;5.40;;
7527;SDS011;3805;49.006;8.514;2023-04-25T15:59:20;6.73;;;5.90;;
7527;SDS011;3805;49.006;8.514;2023-04-25T16:02:09;6.27;;;5.70;;
7527;SDS011;3805;49.006;8.514;2023-04-25T16:04:59;6.40;;;5.90;;
7527;SDS011;3805;49.006;8.514;2023-04-25T16:07:48;5.93;;;5.40;;
7527;SDS011;3805;49.006;8.514;2023-04-25T16:10:39;6.60;;;5.97;;
7527;SDS011;3805;49.006;8.514;2023-04-25T16:13:28;6.63;;;6.07;;
7527;SDS011;3805;49.006;8.514;2023-04-25T16:16:19;6.70;;;6.10;;
7527;SDS011;3805;49.006;8.514;2023-04-25T16:19:08;7.70;;;7.10;;
7527;SDS011;3805;49.006;8.514;2023-04-25T16:21:58;6.93;;;6.30;;
7527;SDS011;3805;49.006;8.514;2023-04-25T16:24:47;10.63;;;6.50;;
7527;SDS011;3805;49.006;8.514;2023-04-25T16:27:36;8.87;;;8.03;;
7527;SDS011;3805;49.006;8.514;2023-04-25T16:30:25;9.30;;;6.90;;
7527;SDS011;3805;49.006;8.514;2023-04-25T16:33:14;8.37;;;7.63;;
7527;SDS011;3805;49.006;8.514;2023-04-25T16:36:02;9.43;;;8.00;;
7527;SDS011;3805;49.006;8.514;2023-04-25T16:38:53;9.37;;;8.47;;
7527;SDS011;3805;49.006;8.514;2023-04-25T16:41:41;8.10;;;7.30;;
7527;SDS011;3805;49.006;8.514;2023-04-25T16:44:30;12.23;;;9.07;;
7527;SDS011;3805;49.006;8.514;2023-04-25T16:47:18;12.10;;;8.80;;
7527;SDS011;3805;49.006;8.514;2023-04-25T16:50:07;12.67;;;8.23;;
7527;SDS011;3805;49.006;8.514;2023-04-25T16:52:56;14.63;;;9.17;;
7527;SDS011;3805;49.006;8.514;2023-04-25T16:55:46;10.00;;;8.20;;
7527;SDS011;3805;49.006;8.514;2023-04-25T16:58:34;11.67;;;9.50;;
7527;SDS011;3805;49.006;8.514;2023-04-25T17:01:23;10.97;;;9.33;;
7527;SDS011;3805;49.006;8.514;2023-04-25T17:04:12;13.53;;;10.47;;
7527;SDS011;3805;49.006;8.514;2023-04-25T17:07:01;16.57;;;11.87;;
7527;SDS011;3805;49.006;8.514;2023-04-25T17:09:49;13.27;;;10.87;;
7527;SDS011;3805;49.006;8.514;2023-04-25T17:12:39;12.70;;;11.07;;
7527;SDS011;3805;49.006;8.514;2023-04-25T17:15:27;14.37;;;11.70;;
7527;SDS011;3805;49.006;8.514;2023-04-25T17:18:19;14.60;;;12.43;;
7527;SDS011;3805;49.006;8.514;2023-04-25T17:21:10;11.10;;;10.00;;
7527;SDS011;3805;49.006;8.514;2023-04-25T17:23:59;14.77;;;10.50;;
7527;SDS011;3805;49.006;8.514;2023-04-25T17:26:47;10.77;;;9.03;;